WMKJ/JHB METAR and TAF weather

Enter ICAO airport designator
Station Type Date Time Source
WMKJ METAR 2018/12/17 17:00 UTC NOAA

WMKJ 171700Z VRB01KT 9999 FEW023 SCT130 BKN280 25/25 Q1012


Station Type Date Time Source
WMKJ Decoded METAR 2018/12/17 17:00 UTC NOAA

Johore Bharu / Senai, Malaysia (WMKJ) 01-38N 103-40E 40M
Dec 17, 2018 - 12:00 PM EST / 2018.12.17 1700 UTC
Wind: Variable at 1 MPH (1 KT):0
Visibility: greater than 7 mile(s):0
Sky conditions: mostly cloudy
Temperature: 77 F (25 C)
Dew Point: 77 F (25 C)
Relative Humidity: 100%
Pressure (altimeter): 29.88 in. Hg (1012 hPa)
ob: WMKJ 171700Z VRB01KT 9999 FEW023 SCT130 BKN280 25/25 Q1012
cycle: 17

Station Type Date Time Source
WMKJ TAF 2018/12/17 18:15 UTC NOAA

TAF TAF WMKJ 171700Z 1718/1818 VRB03KT 9000 FEW022
TEMPO 1808/1812 4000 TSRA FEW008 FEW016CB SCT018


Example: see airport list